Time;durP1;ratioP1;P1;durP2;ratioP2;P2;SDS_P1;SDS_P2;PMS_P1;PMS_P2;Temp;Humidity;BMP_temperature;BMP_pressure;BME280_temperature;BME280_humidity;BME280_pressure;Samples;Min_cycle;Max_cycle;Signal;HPM_P1;HPM_P2
2023/05/11 00:02:24;;;;;;;3.57;3.27;;;;;;;13.49;100.00;100613.81;5102592;28;20208;-82
2023/05/11 00:04:50;;;;;;;4.53;3.60;;;;;;;13.51;100.00;100619.91;5115062;28;20200;-84
2023/05/11 00:07:18;;;;;;;4.87;3.93;;;;;;;13.51;100.00;100611.88;5112475;28;20204;-82
2023/05/11 00:09:45;;;;;;;4.13;3.70;;;;;;;13.51;100.00;100610.06;5100968;28;20702;-83
2023/05/11 00:12:12;;;;;;;5.40;4.90;;;;;;;13.52;100.00;100616.28;5113003;28;20682;-81
2023/05/11 00:14:39;;;;;;;8.37;5.67;;;;;;;13.52;100.00;100616.28;5114422;28;20204;-82
2023/05/11 00:17:06;;;;;;;8.47;5.40;;;;;;;13.52;100.00;100610.91;5108275;28;20200;-82
2023/05/11 00:19:32;;;;;;;7.33;5.90;;;;;;;13.54;100.00;100619.69;5111686;28;20223;-82
2023/05/11 00:22:00;;;;;;;6.97;5.83;;;;;;;13.55;100.00;100611.53;5108742;28;20590;-82
2023/05/11 00:24:28;;;;;;;6.63;5.63;;;;;;;13.57;100.00;100621.28;5110548;28;20203;-82
2023/05/11 00:26:55;;;;;;;7.00;6.27;;;;;;;13.58;100.00;100615.81;5108962;28;20664;-82
2023/05/11 00:29:21;;;;;;;7.40;5.90;;;;;;;13.58;100.00;100614.97;5109783;28;20291;-83
2023/05/11 00:31:48;;;;;;;4.70;3.80;;;;;;;13.59;100.00;100622.03;5106386;28;20228;-82
2023/05/11 00:34:15;;;;;;;4.37;3.67;;;;;;;13.59;100.00;100616.66;5103743;28;20212;-83
2023/05/11 00:36:42;;;;;;;4.10;3.03;;;;;;;13.57;100.00;100624.81;5111455;28;20208;-83
2023/05/11 00:39:17;;;;;;;3.83;3.30;;;;;;;13.54;100.00;100620.53;5100901;28;20208;-83
2023/05/11 00:41:45;;;;;;;5.40;3.70;;;;;;;13.50;100.00;100615.53;5101663;28;20588;-84
2023/05/11 00:44:11;;;;;;;4.30;3.27;;;;;;;13.48;100.00;100623.69;5104076;28;20612;-83
2023/05/11 00:46:38;;;;;;;4.57;3.40;;;;;;;13.46;100.00;100617.59;5101967;28;20222;-83
2023/05/11 00:49:05;;;;;;;4.43;3.40;;;;;;;13.46;100.00;100622.06;5105949;28;20204;-83
2023/05/11 00:51:32;;;;;;;6.37;4.40;;;;;;;13.45;100.00;100621.22;5112537;28;20223;-82
2023/05/11 00:53:59;;;;;;;5.23;4.30;;;;;;;13.45;100.00;100615.03;5111196;28;20270;-83
2023/05/11 00:56:26;;;;;;;5.30;4.73;;;;;;;13.46;100.00;100617.59;5110255;28;20239;-82
2023/05/11 00:58:54;;;;;;;5.03;4.23;;;;;;;13.47;100.00;100619.28;5107683;28;20195;-81
2023/05/11 01:01:21;;;;;;;5.60;4.70;;;;;;;13.48;100.00;100618.31;5110077;28;20245;-83
2023/05/11 01:03:48;;;;;;;5.30;4.43;;;;;;;13.48;100.00;100618.31;5097731;28;20204;-83
2023/05/11 01:06:22;;;;;;;5.67;4.23;;;;;;;13.49;100.00;100611.16;5112375;28;20210;-82
2023/05/11 01:08:55;;;;;;;5.63;5.03;;;;;;;13.50;100.00;100612.84;5109414;28;20207;-83
2023/05/11 01:11:28;;;;;;;5.93;4.87;;;;;;;13.50;100.00;100620.88;5108805;28;20236;-83
2023/05/11 01:14:03;;;;;;;5.57;4.47;;;;;;;13.49;100.00;100617.34;5096466;28;20421;-83
2023/05/11 01:16:33;;;;;;;6.83;4.70;;;;;;;13.50;100.00;100624.41;5106483;28;20210;-83
2023/05/11 01:19:05;;;;;;;6.23;5.27;;;;;;;13.49;100.00;100617.34;5107039;28;20203;-83
2023/05/11 01:21:33;;;;;;;8.60;5.40;;;;;;;13.49;100.00;100624.53;5100774;28;20232;-82
2023/05/11 01:24:19;;;;;;;7.47;5.90;;;;;;;13.48;100.00;100621.00;5104167;28;20211;-82
2023/05/11 01:27:00;;;;;;;5.73;5.03;;;;;;;13.50;100.00;100626.22;5111873;28;20780;-82
2023/05/11 01:29:46;;;;;;;6.73;5.30;;;;;;;13.49;100.00;100617.34;5109346;28;20211;-82
2023/05/11 01:32:18;;;;;;;5.53;5.03;;;;;;;13.50;100.00;100612.84;5102461;28;20605;-83
2023/05/11 01:34:46;;;;;;;5.90;4.67;;;;;;;13.50;100.00;100616.38;5107461;28;20208;-83
2023/05/11 01:37:17;;;;;;;6.03;4.43;;;;;;;13.50;100.00;100618.22;5110178;28;20208;-83
2023/05/11 01:39:51;;;;;;;6.23;4.67;;;;;;;13.50;100.00;100623.56;5103547;28;20211;-83
2023/05/11 01:42:21;;;;;;;5.37;4.53;;;;;;;13.48;100.00;100621.00;5101351;28;20217;-81
2023/05/11 01:44:51;;;;;;;4.30;3.90;;;;;;;13.47;100.00;100619.28;5106184;28;20203;-83
2023/05/11 01:47:22;;;;;;;4.60;4.20;;;;;;;13.45;100.00;100621.22;5104205;28;20207;-83
2023/05/11 01:49:50;;;;;;;5.60;4.53;;;;;;;13.45;100.00;100620.38;5111493;28;20196;-82
2023/05/11 01:52:20;;;;;;;5.30;4.80;;;;;;;13.45;100.00;100623.91;5103159;28;20627;-82
2023/05/11 01:54:48;;;;;;;5.20;4.70;;;;;;;13.45;100.00;100620.38;5107818;28;20199;-83
2023/05/11 01:57:16;;;;;;;6.30;5.57;;;;;;;13.45;100.00;100618.56;5109365;28;20594;-84
2023/05/11 01:59:44;;;;;;;5.80;4.73;;;;;;;13.46;100.00;100622.06;5108738;28;20231;-83
2023/05/11 02:02:12;;;;;;;6.83;5.27;;;;;;;13.47;100.00;100624.66;5107162;28;20223;-83
2023/05/11 02:04:41;;;;;;;6.40;4.50;;;;;;;13.47;100.00;100624.66;5104017;28;20704;-82
2023/05/11 02:07:10;;;;;;;5.53;4.73;;;;;;;13.46;100.00;100624.75;5104788;28;20290;-83
2023/05/11 02:09:38;;;;;;;5.00;4.20;;;;;;;13.44;100.00;100626.69;5099856;28;20216;-83
2023/05/11 02:12:06;;;;;;;7.27;5.70;;;;;;;13.44;100.00;100629.38;5108814;28;20224;-83
2023/05/11 02:14:35;;;;;;;6.03;5.33;;;;;;;13.43;100.00;100625.88;5104195;28;20609;-83
2023/05/11 02:17:04;;;;;;;5.63;4.70;;;;;;;13.43;100.00;100627.69;5106752;28;20204;-82
2023/05/11 02:19:33;;;;;;;6.20;5.00;;;;;;;13.41;100.00;100626.94;5104664;28;20211;-83
2023/05/11 02:22:02;;;;;;;6.23;5.07;;;;;;;13.40;100.00;100627.91;5102510;28;20230;-82
2023/05/11 02:24:30;;;;;;;5.50;4.90;;;;;;;13.40;100.00;100627.91;5108906;28;20208;-83
2023/05/11 02:26:57;;;;;;;6.40;4.57;;;;;;;13.39;100.00;100632.41;5108713;28;20207;-83
2023/05/11 02:29:24;;;;;;;5.27;4.77;;;;;;;13.38;100.00;100629.84;5105951;28;20203;-83
2023/05/11 02:31:57;;;;;;;5.20;4.67;;;;;;;13.38;100.00;100630.69;5105275;28;20642;-82
2023/05/11 02:34:28;;;;;;;6.37;4.70;;;;;;;13.36;100.00;100626.44;5110550;28;20215;-83
2023/05/11 02:36:59;;;;;;;5.23;4.73;;;;;;;13.37;100.00;100625.47;5101582;28;21336;-83
2023/05/11 02:39:32;;;;;;;7.33;5.40;;;;;;;13.37;100.00;100629.00;5109613;28;20226;-83
2023/05/11 02:42:01;;;;;;;5.83;5.23;;;;;;;13.38;100.00;100628.03;5103010;28;20822;-83
2023/05/11 02:44:34;;;;;;;5.47;4.80;;;;;;;13.38;100.00;100628.03;5106086;28;20218;-83
2023/05/11 02:47:03;;;;;;;5.67;5.17;;;;;;;13.39;100.00;100636.91;5108545;28;20582;-83
2023/05/11 02:49:32;;;;;;;7.33;5.23;;;;;;;13.39;100.00;100631.56;5108883;28;20223;-82
2023/05/11 02:52:00;;;;;;;7.53;5.10;;;;;;;13.39;100.00;100629.75;5106280;28;20222;-84
2023/05/11 02:54:29;;;;;;;8.43;6.60;;;;;;;13.40;100.00;100628.78;5103670;28;20271;-84
2023/05/11 02:56:56;;;;;;;8.10;6.60;;;;;;;13.40;100.00;100623.41;5103809;28;20214;-83
2023/05/11 02:59:23;;;;;;;6.03;5.43;;;;;;;13.42;100.00;100628.66;5105903;28;20683;-82
2023/05/11 03:01:50;;;;;;;6.47;5.80;;;;;;;13.41;100.00;100633.16;5107582;28;20236;-83
2023/05/11 03:04:17;;;;;;;6.27;5.67;;;;;;;13.36;100.00;100638.00;5109351;28;20191;-83
2023/05/11 03:06:43;;;;;;;7.13;5.73;;;;;;;13.34;100.00;100634.56;5105257;28;20204;-82
2023/05/11 03:09:10;;;;;;;6.90;5.57;;;;;;;13.32;100.00;100636.50;5102136;28;20199;-83
2023/05/11 03:11:38;;;;;;;5.53;4.97;;;;;;;13.32;100.00;100636.50;5106749;28;20231;-82
2023/05/11 03:14:06;;;;;;;6.50;5.90;;;;;;;13.32;100.00;100635.66;5104464;28;20227;-82
2023/05/11 03:16:33;;;;;;;13.13;8.80;;;;;;;13.32;100.00;100636.50;5109711;28;20847;-82
2023/05/11 03:19:01;;;;;;;11.07;9.80;;;;;;;13.32;100.00;100631.16;5101550;28;20241;-82
2023/05/11 03:21:28;;;;;;;15.60;10.67;;;;;;;13.33;100.00;100632.00;5107432;28;20227;-82
2023/05/11 03:23:56;;;;;;;13.63;11.43;;;;;;;13.35;100.00;100640.78;5105518;28;20204;-83
2023/05/11 03:26:24;;;;;;;17.10;12.73;;;;;;;13.34;100.00;100626.53;5103072;28;20211;-82
2023/05/11 03:28:53;;;;;;;16.60;12.30;;;;;;;13.35;100.00;100635.41;5109621;28;20199;-83
2023/05/11 03:31:19;;;;;;;13.87;11.80;;;;;;;13.35;100.00;100635.41;5101678;28;20680;-82
2023/05/11 03:33:46;;;;;;;15.40;11.53;;;;;;;13.36;100.00;100634.47;5104804;28;20237;-83
2023/05/11 03:36:14;;;;;;;14.33;11.83;;;;;;;13.35;100.00;100636.28;5100916;28;20203;-83
2023/05/11 03:38:41;;;;;;;15.13;11.47;;;;;;;13.35;100.00;100630.94;5103435;28;20207;-82
2023/05/11 03:41:08;;;;;;;13.30;9.13;;;;;;;13.34;100.00;100631.91;5097924;28;20227;-84
2023/05/11 03:43:36;;;;;;;13.13;9.83;;;;;;;13.35;100.00;100632.75;5104965;28;20749;-83
2023/05/11 03:46:05;;;;;;;11.93;10.00;;;;;;;13.34;100.00;100629.22;5100647;28;20224;-83
2023/05/11 03:48:32;;;;;;;14.30;11.10;;;;;;;13.35;100.00;100627.41;5107333;28;20203;-82
2023/05/11 03:50:58;;;;;;;16.90;12.43;;;;;;;13.34;100.00;100629.22;5103582;28;20216;-82
2023/05/11 03:53:25;;;;;;;17.27;12.47;;;;;;;13.35;100.00;100622.91;5108579;28;20220;-82
2023/05/11 03:55:53;;;;;;;23.50;14.80;;;;;;;13.35;100.00;100622.91;5101951;28;20773;-82
2023/05/11 03:58:20;;;;;;;21.87;15.03;;;;;;;13.35;100.00;100620.22;5105113;28;20458;-83
2023/05/11 04:00:46;;;;;;;19.80;15.70;;;;;;;13.35;100.00;100624.72;5107105;28;20824;-83
2023/05/11 04:03:14;;;;;;;26.17;17.87;;;;;;;13.36;100.00;100632.63;5101369;28;20199;-83
2023/05/11 04:05:41;;;;;;;25.70;17.33;;;;;;;13.36;100.00;100626.44;5102160;28;20690;-83
2023/05/11 04:08:08;;;;;;;23.83;17.37;;;;;;;13.37;100.00;100628.13;5109335;28;20203;-82
2023/05/11 04:10:37;;;;;;;24.07;17.43;;;;;;;13.36;100.00;100629.97;5104083;28;20219;-83
2023/05/11 04:13:03;;;;;;;24.50;17.43;;;;;;;13.36;100.00;100621.94;5106414;28;20210;-82
2023/05/11 04:15:29;;;;;;;24.40;17.87;;;;;;;13.38;100.00;100629.84;5111133;28;20222;-82
2023/05/11 04:18:02;;;;;;;24.63;18.63;;;;;;;13.38;100.00;100621.81;5108415;28;20656;-83
2023/05/11 04:20:30;;;;;;;25.80;18.50;;;;;;;13.39;100.00;100623.53;5111517;28;20248;-82
2023/05/11 04:22:56;;;;;;;32.67;18.97;;;;;;;13.38;100.00;100622.69;5109200;28;20210;-83
2023/05/11 04:25:22;;;;;;;26.67;17.57;;;;;;;13.39;100.00;100632.41;5105961;28;20199;-82
2023/05/11 04:27:49;;;;;;;24.33;17.63;;;;;;;13.40;100.00;100626.09;5109565;28;20230;-82
2023/05/11 04:30:16;;;;;;;22.77;17.20;;;;;;;13.40;100.00;100623.41;5107864;28;20228;-81
2023/05/11 04:32:42;;;;;;;23.57;16.87;;;;;;;13.40;100.00;100626.09;5111684;28;20735;-82
2023/05/11 04:35:09;;;;;;;22.27;16.87;;;;;;;13.40;100.00;100627.91;5106945;28;20687;-82
2023/05/11 04:37:37;;;;;;;23.50;17.57;;;;;;;13.41;100.00;100624.28;5103904;28;20210;-82
2023/05/11 04:40:06;;;;;;;23.13;16.30;;;;;;;13.42;100.00;100634.00;5111382;28;20652;-81
2023/05/11 04:42:32;;;;;;;22.70;18.03;;;;;;;13.42;100.00;100631.34;5111091;28;20212;-82
2023/05/11 04:44:59;;;;;;;25.43;18.43;;;;;;;13.42;100.00;100629.50;5100684;28;20205;-81
2023/05/11 04:47:25;;;;;;;23.67;17.37;;;;;;;13.43;100.00;100630.38;5105208;28;20204;-82
2023/05/11 04:49:51;;;;;;;21.40;17.17;;;;;;;13.43;100.00;100630.38;5106593;28;20204;-80
2023/05/11 04:52:18;;;;;;;21.23;16.63;;;;;;;13.45;100.00;100636.41;5134134;22;20249;-73
2023/05/11 04:54:46;;;;;;;20.40;16.30;;;;;;;13.44;100.00;100640.91;5069627;28;20224;-73
2023/05/11 04:57:12;;;;;;;20.80;16.87;;;;;;;13.45;100.00;100645.31;5068937;28;20215;-73
2023/05/11 04:59:39;;;;;;;18.83;15.33;;;;;;;13.44;100.00;100642.75;5069500;28;20204;-71
2023/05/11 05:02:05;;;;;;;19.57;15.73;;;;;;;13.44;100.00;100650.75;5038481;28;20205;-71
2023/05/11 05:04:31;;;;;;;20.30;15.40;;;;;;;13.42;100.00;100639.34;5046707;28;20204;-71
2023/05/11 05:06:58;;;;;;;17.57;15.20;;;;;;;13.43;100.00;100641.91;5044719;28;20202;-71
2023/05/11 05:09:24;;;;;;;19.07;15.00;;;;;;;13.43;100.00;100644.59;5049382;28;20197;-70
2023/05/11 05:11:52;;;;;;;19.33;15.10;;;;;;;13.42;100.00;100650.91;5044295;28;20234;-71
2023/05/11 05:14:19;;;;;;;16.63;14.00;;;;;;;13.41;100.00;100651.03;5050945;28;21089;-71
2023/05/11 05:16:45;;;;;;;17.57;15.03;;;;;;;13.39;100.00;100645.78;5043410;28;20214;-72
2023/05/11 05:19:12;;;;;;;16.93;13.83;;;;;;;13.38;100.00;100653.91;5049568;28;20201;-71
2023/05/11 05:21:39;;;;;;;18.63;14.00;;;;;;;13.36;100.00;100648.69;5046225;28;20313;-72
2023/05/11 05:24:09;;;;;;;16.87;13.57;;;;;;;13.36;100.00;100647.84;5044331;28;20221;-72
2023/05/11 05:26:36;;;;;;;15.87;13.23;;;;;;;13.35;100.00;100652.31;5049944;28;20236;-71
2023/05/11 05:29:04;;;;;;;15.90;13.30;;;;;;;13.37;100.00;100649.53;5040849;28;20213;-71
2023/05/11 05:31:31;;;;;;;17.97;14.30;;;;;;;13.38;100.00;100656.59;5038376;28;20230;-72
2023/05/11 05:33:57;;;;;;;19.90;14.73;;;;;;;13.39;100.00;100660.97;5042149;28;20226;-71
2023/05/11 05:36:23;;;;;;;15.20;12.90;;;;;;;13.40;100.00;100660.88;5042000;28;20210;-71
2023/05/11 05:38:50;;;;;;;15.20;13.40;;;;;;;13.40;100.00;100660.00;5044761;28;20201;-73
2023/05/11 05:41:16;;;;;;;16.43;13.20;;;;;;;13.39;100.00;100660.97;5040570;28;20230;-73
2023/05/11 05:43:43;;;;;;;13.53;12.10;;;;;;;13.38;100.00;100662.81;5046889;28;20233;-71
2023/05/11 05:46:10;;;;;;;14.53;13.10;;;;;;;13.38;100.00;100662.81;5048354;28;20204;-71
2023/05/11 05:48:37;;;;;;;15.90;13.60;;;;;;;13.39;100.00;100663.66;5045620;28;20197;-71
2023/05/11 05:51:04;;;;;;;16.07;13.33;;;;;;;13.40;100.00;100668.91;5042432;28;20238;-72
2023/05/11 05:53:30;;;;;;;15.40;13.07;;;;;;;13.40;100.00;100671.56;5041927;28;20301;-72
2023/05/11 05:55:57;;;;;;;14.40;12.90;;;;;;;13.41;100.00;100673.28;5042903;28;20202;-72
2023/05/11 05:58:23;;;;;;;13.60;12.17;;;;;;;13.42;100.00;100671.47;5039117;28;20205;-71
2023/05/11 06:00:51;;;;;;;13.03;11.63;;;;;;;13.43;100.00;100682.06;5037990;28;20224;-72
2023/05/11 06:03:19;;;;;;;13.93;12.40;;;;;;;13.44;100.00;100677.53;5047301;28;20760;-71
2023/05/11 06:05:45;;;;;;;15.73;12.50;;;;;;;13.45;100.00;100679.22;5042614;28;20214;-72
2023/05/11 06:08:12;;;;;;;12.50;11.20;;;;;;;13.47;100.00;100677.28;5049361;28;20201;-72
2023/05/11 06:10:38;;;;;;;13.00;11.37;;;;;;;13.47;100.00;100678.16;5045942;28;20235;-72
2023/05/11 06:13:05;;;;;;;12.07;10.87;;;;;;;13.48;100.00;100685.22;5041646;28;20354;-72
2023/05/11 06:15:31;;;;;;;14.23;12.67;;;;;;;13.50;100.00;100682.41;5047308;28;20720;-72
2023/05/11 06:17:58;;;;;;;13.03;11.77;;;;;;;13.52;100.00;100677.81;5044266;28;20214;-72
2023/05/11 06:20:25;;;;;;;13.43;11.57;;;;;;;13.54;100.00;100682.09;5041553;28;20222;-72
2023/05/11 06:22:52;;;;;;;11.70;10.60;;;;;;;13.57;100.00;100681.00;5044158;28;20613;-69
2023/05/11 06:25:18;;;;;;;12.47;11.10;;;;;;;13.59;100.00;100683.56;5040854;28;20227;-68
2023/05/11 06:27:45;;;;;;;13.30;11.27;;;;;;;13.60;100.00;100678.09;5046808;28;20197;-69
2023/05/11 06:30:12;;;;;;;12.80;11.27;;;;;;;13.63;100.00;100677.00;5047286;28;20323;-68
2023/05/11 06:32:38;;;;;;;12.60;11.30;;;;;;;13.65;100.00;100686.63;5043873;28;20198;-68
2023/05/11 06:35:05;;;;;;;11.50;10.30;;;;;;;13.66;100.00;100677.63;5043271;28;20766;-68
2023/05/11 06:37:34;;;;;;;13.07;11.67;;;;;;;13.68;100.00;100683.72;5039941;28;20239;-68
2023/05/11 06:40:00;;;;;;;14.03;12.00;;;;;;;13.71;100.00;100680.81;5043197;28;20304;-67
2023/05/11 06:42:27;;;;;;;13.43;11.67;;;;;;;13.75;100.00;100681.44;5042978;28;20302;-68
2023/05/11 06:44:53;;;;;;;11.90;10.53;;;;;;;13.80;100.00;100674.75;5035599;28;20213;-70
2023/05/11 06:47:20;;;;;;;13.10;11.80;;;;;;;13.84;100.00;100672.69;5042536;28;20304;-70
2023/05/11 06:49:47;;;;;;;12.07;10.87;;;;;;;13.86;100.00;100676.09;5040875;28;20204;-69
2023/05/11 06:52:13;;;;;;;12.20;11.00;;;;;;;13.85;100.00;100679.75;5042320;28;20213;-69
2023/05/11 06:54:41;;;;;;;13.03;11.20;;;;;;;13.85;100.00;100680.59;5043390;28;20229;-69
2023/05/11 06:57:07;;;;;;;14.00;11.47;;;;;;;13.86;100.00;100679.63;5040989;28;20209;-69
2023/05/11 06:59:34;;;;;;;13.63;11.37;;;;;;;13.87;100.00;100677.81;5049048;28;20213;-69
2023/05/11 07:02:00;;;;;;;12.43;11.13;;;;;;;13.88;100.00;100682.19;5045911;28;20705;-69
2023/05/11 07:04:28;;;;;;;13.07;11.67;;;;;;;13.88;100.00;100672.34;5043090;28;20236;-70
2023/05/11 07:06:54;;;;;;;14.40;11.53;;;;;;;13.90;100.00;100675.75;5038856;28;20366;-69
2023/05/11 07:09:21;;;;;;;12.53;10.83;;;;;;;13.93;100.00;100681.84;5045418;28;20620;-69
2023/05/11 07:11:50;;;;;;;13.43;11.90;;;;;;;13.93;100.00;100682.72;5039725;28;20351;-69
2023/05/11 07:14:17;;;;;;;13.13;11.37;;;;;;;13.96;100.00;100681.63;5046175;28;20769;-70
2023/05/11 07:16:45;;;;;;;13.40;11.83;;;;;;;13.98;100.00;100680.50;5041041;28;20197;-69
2023/05/11 07:19:11;;;;;;;13.53;11.63;;;;;;;14.01;100.00;100676.75;5044997;28;20209;-70
2023/05/11 07:21:38;;;;;;;13.23;11.30;;;;;;;14.04;100.00;100681.88;5046004;28;20700;-68
2023/05/11 07:24:04;;;;;;;12.10;10.80;;;;;;;14.05;100.00;100683.56;5038729;28;20213;-69
2023/05/11 07:26:31;;;;;;;13.00;11.43;;;;;;;14.06;100.00;100679.94;5045961;28;20210;-68
2023/05/11 07:28:59;;;;;;;12.43;11.13;;;;;;;14.07;100.00;100682.50;5041355;28;20198;-69
2023/05/11 07:31:25;;;;;;;14.13;10.80;;;;;;;14.09;100.00;100691.28;5042262;28;20226;-68
2023/05/11 07:33:52;;;;;;;12.67;11.37;;;;;;;14.12;100.00;100684.81;5042334;28;20723;-69
2023/05/11 07:36:18;;;;;;;12.70;11.20;;;;;;;14.13;100.00;100691.88;5045315;28;20221;-69
2023/05/11 07:38:45;;;;;;;14.87;11.50;;;;;;;14.16;100.00;100687.13;5042927;28;20230;-70
2023/05/11 07:41:11;;;;;;;12.37;11.07;;;;;;;14.18;100.00;100684.31;5049226;28;20229;-72
2023/05/11 07:43:38;;;;;;;14.23;11.57;;;;;;;14.22;100.00;100688.47;5045459;28;20214;-69
2023/05/11 07:46:06;;;;;;;13.80;11.23;;;;;;;14.24;100.00;100687.41;5047245;28;20206;-68
2023/05/11 07:48:32;;;;;;;11.67;10.47;;;;;;;14.28;100.00;100690.69;5046255;28;20444;-68
2023/05/11 07:51:00;;;;;;;12.57;10.33;;;;;;;14.30;100.00;100691.44;5043182;28;20228;-68
2023/05/11 07:53:26;;;;;;;12.40;10.00;;;;;;;14.31;100.00;100693.13;5048300;28;20221;-70
2023/05/11 07:55:53;;;;;;;11.70;10.13;;;;;;;14.34;100.00;100689.34;5047443;28;20221;-69
2023/05/11 07:58:19;;;;;;;13.10;11.33;;;;;;;14.35;100.00;100694.56;5050486;28;20213;-70
2023/05/11 08:00:46;;;;;;;13.20;10.73;;;;;;;14.39;100.00;100695.19;5044453;28;20222;-69
2023/05/11 08:03:14;;;;;;;11.23;10.00;;;;;;;14.41;100.00;100691.47;5045026;28;20229;-69
2023/05/11 08:05:41;;;;;;;12.63;10.60;;;;;;;14.44;100.00;100691.22;5045305;28;20741;-69
2023/05/11 08:08:07;;;;;;;13.03;10.30;;;;;;;14.45;100.00;100700.13;5042132;28;20213;-69
2023/05/11 08:10:36;;;;;;;10.87;9.43;;;;;;;14.45;100.00;100698.28;5043760;28;20441;-69
2023/05/11 08:13:02;;;;;;;11.90;9.57;;;;;;;14.45;100.00;100692.09;5046475;28;20213;-71
2023/05/11 08:15:29;;;;;;;11.20;10.00;;;;;;;14.46;100.00;100704.50;5045368;28;20252;-70
2023/05/11 08:17:55;;;;;;;10.30;9.30;;;;;;;14.46;100.00;100694.63;5044180;28;20661;-70
2023/05/11 08:20:23;;;;;;;10.70;9.07;;;;;;;14.46;100.00;100700.00;5049432;28;20233;-70
2023/05/11 08:22:50;;;;;;;10.40;9.13;;;;;;;14.48;100.00;100699.88;5051051;28;20217;-71
2023/05/11 08:25:16;;;;;;;11.33;10.00;;;;;;;14.49;100.00;100694.41;5050694;28;20201;-69
2023/05/11 08:27:43;;;;;;;11.00;9.90;;;;;;;14.50;100.00;100696.13;5046315;28;20220;-71
2023/05/11 08:30:10;;;;;;;10.87;9.63;;;;;;;14.51;100.00;100700.47;5043232;28;20225;-69
2023/05/11 08:32:38;;;;;;;11.93;10.57;;;;;;;14.53;100.00;100706.56;5048444;28;20212;-70
2023/05/11 08:35:05;;;;;;;13.80;11.07;;;;;;;14.55;100.00;100699.25;5050377;28;20222;-70
2023/05/11 08:37:33;;;;;;;12.77;11.43;;;;;;;14.58;100.00;100698.16;5048206;28;20213;-70
2023/05/11 08:39:59;;;;;;;12.70;11.10;;;;;;;14.58;100.00;100704.38;5049794;28;20226;-72
2023/05/11 08:42:29;;;;;;;13.03;11.40;;;;;;;14.60;100.00;100701.59;5047368;28;20217;-70
2023/05/11 08:44:57;;;;;;;12.80;10.23;;;;;;;14.59;100.00;100698.06;5047045;28;20198;-69
2023/05/11 08:47:24;;;;;;;12.47;10.17;;;;;;;14.59;100.00;100702.56;5048639;28;20304;-69
2023/05/11 08:49:51;;;;;;;10.70;9.60;;;;;;;14.59;100.00;100703.41;5041424;28;20209;-70
2023/05/11 08:52:18;;;;;;;11.13;9.93;;;;;;;14.58;100.00;100701.69;5046392;28;20205;-69
2023/05/11 08:54:46;;;;;;;11.23;9.77;;;;;;;14.58;100.00;100704.38;5049310;28;20205;-70
2023/05/11 08:57:13;;;;;;;9.57;8.57;;;;;;;14.57;100.00;100702.69;5041687;28;20224;-72
2023/05/11 08:59:41;;;;;;;9.03;8.13;;;;;;;14.57;100.00;100696.47;5037277;28;20241;-69
2023/05/11 09:02:13;;;;;;;9.17;8.17;;;;;;;14.57;100.00;100700.00;5046411;28;20205;-69
2023/05/11 09:04:41;;;;;;;8.93;8.03;;;;;;;14.58;100.00;100704.38;5041993;28;20716;-70
2023/05/11 09:07:08;;;;;;;8.17;7.37;;;;;;;14.56;100.00;100703.66;5049185;28;20715;-70
2023/05/11 09:09:34;;;;;;;9.33;8.33;;;;;;;14.56;100.00;100703.66;5045463;28;20755;-70
2023/05/11 09:12:03;;;;;;;7.80;7.00;;;;;;;14.56;100.00;100700.13;5044932;28;20340;-72
2023/05/11 09:14:29;;;;;;;7.10;5.97;;;;;;;14.55;100.00;100699.25;5046396;28;20652;-72
2023/05/11 09:16:57;;;;;;;7.50;6.70;;;;;;;14.53;100.00;100706.56;5050283;28;20308;-72
2023/05/11 09:19:24;;;;;;;7.60;6.53;;;;;;;14.51;100.00;100696.97;5051324;28;20201;-72
2023/05/11 09:21:52;;;;;;;7.33;6.53;;;;;;;14.50;100.00;100697.94;5048679;28;20217;-72
2023/05/11 09:24:19;;;;;;;6.83;5.70;;;;;;;14.48;100.00;100698.06;5050780;28;20197;-72
2023/05/11 09:26:46;;;;;;;6.30;5.50;;;;;;;14.47;100.00;100701.72;5048437;28;20213;-72
2023/05/11 09:29:14;;;;;;;6.43;5.83;;;;;;;14.45;100.00;100698.28;5048362;28;20212;-72
2023/05/11 09:31:42;;;;;;;5.67;5.13;;;;;;;14.45;100.00;100694.75;5050548;28;20708;-72
2023/05/11 09:34:13;;;;;;;6.73;5.57;;;;;;;14.45;100.00;100698.28;5047636;28;20194;-72
2023/05/11 09:36:40;;;;;;;4.40;4.00;;;;;;;14.43;100.00;100694.88;5039072;28;20253;-72
2023/05/11 09:39:06;;;;;;;4.63;4.23;;;;;;;14.42;100.00;100695.84;5048139;28;20492;-72
2023/05/11 09:41:33;;;;;;;4.73;4.30;;;;;;;14.42;100.00;100697.69;5044749;28;20217;-72
2023/05/11 09:44:09;;;;;;;5.60;4.83;;;;;;;14.42;100.00;100698.53;5047221;28;20680;-72
2023/05/11 09:46:37;;;;;;;5.33;4.83;;;;;;;14.42;100.00;100687.81;5044530;28;20262;-72
2023/05/11 09:49:05;;;;;;;5.20;4.70;;;;;;;14.44;100.00;100691.22;5048058;28;20575;-73
2023/05/11 09:51:33;;;;;;;4.00;3.60;;;;;;;14.46;100.00;100693.78;5049126;28;20217;-72
2023/05/11 09:54:01;;;;;;;5.50;4.10;;;;;;;14.49;100.00;100694.41;5047050;28;20208;-72
2023/05/11 09:56:46;;;;;;;4.63;4.10;;;;;;;14.52;100.00;100702.19;5049018;28;20228;-72
2023/05/11 09:59:14;;;;;;;4.80;4.13;;;;;;;14.56;100.00;100700.13;5049196;28;20252;-72
2023/05/11 10:01:42;;;;;;;4.40;4.00;;;;;;;14.59;100.00;100692.69;5047826;28;20213;-72
2023/05/11 10:04:09;;;;;;;4.47;3.90;;;;;;;14.61;100.00;100692.56;5047540;28;20202;-71
2023/05/11 10:06:46;;;;;;;3.60;3.30;;;;;;;14.64;100.00;100691.47;5046705;28;20578;-72
2023/05/11 10:09:15;;;;;;;4.30;3.90;;;;;;;14.67;100.00;100691.25;5043761;28;20226;-72
2023/05/11 10:11:44;;;;;;;4.60;3.80;;;;;;;14.69;100.00;100692.78;5047282;28;20230;-72
2023/05/11 10:14:12;;;;;;;4.07;3.67;;;;;;;14.71;100.00;100684.63;5048997;28;20665;-72
2023/05/11 10:16:40;;;;;;;3.50;3.20;;;;;;;14.73;100.00;100696.94;5047845;28;20710;-72
2023/05/11 10:19:08;;;;;;;3.80;3.23;;;;;;;14.74;100.00;100690.59;5048516;28;20206;-72
2023/05/11 10:21:35;;;;;;;3.73;3.37;;;;;;;14.76;100.00;100685.13;5046566;28;20818;-72
2023/05/11 10:24:03;;;;;;;3.80;3.50;;;;;;;14.76;100.00;100688.66;5048281;28;20206;-72
2023/05/11 10:26:31;;;;;;;3.37;3.07;;;;;;;14.76;100.00;100694.03;5048097;28;20204;-72
2023/05/11 10:28:58;;;;;;;3.67;3.37;;;;;;;14.75;100.00;100681.59;5047688;28;20213;-72
2023/05/11 10:31:26;;;;;;;3.87;3.47;;;;;;;14.77;100.00;100684.16;5047044;28;20585;-71
2023/05/11 10:33:53;;;;;;;4.47;4.00;;;;;;;14.78;100.00;100676.00;5054083;28;20209;-72
2023/05/11 10:36:23;;;;;;;4.53;4.13;;;;;;;14.81;100.00;100675.75;5048063;28;20872;-72
2023/05/11 10:38:50;;;;;;;3.80;3.40;;;;;;;14.81;100.00;100677.56;5047070;28;20678;-72
2023/05/11 10:41:29;;;;;;;3.50;3.20;;;;;;;14.80;100.00;100674.03;5045309;28;20222;-72
2023/05/11 10:44:28;;;;;;;3.77;3.33;;;;;;;14.81;100.00;100678.44;5044203;28;20218;-72
2023/05/11 10:47:09;;;;;;;3.80;3.40;;;;;;;14.81;100.00;100680.25;5044552;28;20210;-72
2023/05/11 10:49:58;;;;;;;3.57;3.27;;;;;;;14.81;100.00;100683.78;5040648;28;20202;-71
2023/05/11 10:52:46;;;;;;;2.93;2.63;;;;;;;14.81;100.00;100682.94;5046349;28;20220;-72
2023/05/11 10:55:22;;;;;;;3.30;2.80;;;;;;;14.80;100.00;100681.22;5047909;28;20271;-72
2023/05/11 10:58:05;;;;;;;2.63;2.43;;;;;;;14.81;100.00;100674.91;5041869;28;20676;-72
2023/05/11 11:01:21;;;;;;;3.07;2.77;;;;;;;14.82;100.00;100679.28;5047302;28;20319;-72
2023/05/11 11:03:58;;;;;;;2.57;2.37;;;;;;;14.84;100.00;100678.19;5038990;28;20209;-72
2023/05/11 11:06:27;;;;;;;2.30;2.10;;;;;;;14.81;100.00;100674.91;5040548;28;20206;-72
2023/05/11 11:08:59;;;;;;;2.30;1.83;;;;;;;14.80;100.00;100679.41;5046290;28;20680;-73
2023/05/11 11:11:33;;;;;;;2.10;1.80;;;;;;;14.79;100.00;100677.69;5046648;28;20232;-72
2023/05/11 11:14:02;;;;;;;2.10;1.90;;;;;;;14.79;100.00;100680.38;5044791;28;20210;-73
2023/05/11 11:16:29;;;;;;;2.10;1.90;;;;;;;14.75;100.00;100680.75;5045525;28;20791;-72